createdAt,value
2023-07-10T00:00:32.011Z,980.12
2023-07-10T00:01:04.521Z,980.02
2023-07-10T00:01:35.847Z,980.02
2023-07-10T00:02:07.655Z,979.82
2023-07-10T00:02:39.662Z,979.82
2023-07-10T00:03:11.644Z,980.12
2023-07-10T00:03:43.630Z,980.12
2023-07-10T00:04:15.358Z,979.82
2023-07-10T00:04:47.519Z,979.82
2023-07-10T00:05:20.014Z,979.82
2023-07-10T00:05:51.308Z,979.82
2023-07-10T00:06:23.614Z,980.02
2023-07-10T00:06:39.538Z,980.02
2023-07-10T00:07:23.584Z,979.82
2023-07-10T00:07:55.497Z,979.82
2023-07-10T00:08:27.182Z,980.12
2023-07-10T00:08:59.296Z,980.12
2023-07-10T00:09:31.309Z,979.92
2023-07-10T00:10:04.356Z,979.82
2023-07-10T00:10:35.237Z,979.82
2023-07-10T00:11:07.205Z,980.02
2023-07-10T00:11:39.183Z,980.02
2023-07-10T00:12:11.202Z,980.02
2023-07-10T00:12:43.198Z,980.02
2023-07-10T00:13:15.018Z,980.02
2023-07-10T00:13:47.208Z,980.02
2023-07-10T00:14:19.213Z,980.12
2023-07-10T00:14:51.187Z,980.12
2023-07-10T00:15:23.525Z,979.92
2023-07-10T00:15:39.206Z,979.92
2023-07-10T00:16:11.137Z,979.82
2023-07-10T00:16:55.214Z,979.82
2023-07-10T00:17:26.875Z,980.02
2023-07-10T00:17:59.022Z,980.02
2023-07-10T00:18:30.931Z,979.82
2023-07-10T00:19:03.915Z,979.92
2023-07-10T00:19:35.068Z,979.92
2023-07-10T00:20:07.298Z,979.82
2023-07-10T00:20:23.206Z,979.82
2023-07-10T00:21:06.866Z,979.92
2023-07-10T00:21:38.975Z,979.92
2023-07-10T00:22:10.763Z,979.71
2023-07-10T00:22:42.652Z,979.71
2023-07-10T00:23:14.813Z,979.82
2023-07-10T00:23:46.757Z,979.82
2023-07-10T00:24:18.516Z,979.92
2023-07-10T00:24:50.792Z,979.92
2023-07-10T00:25:23.009Z,979.92
2023-07-10T00:25:54.804Z,979.92
2023-07-10T00:26:26.459Z,979.92
2023-07-10T00:26:58.463Z,979.92
2023-07-10T00:27:30.543Z,979.71
2023-07-10T00:28:03.198Z,979.71
2023-07-10T00:28:34.506Z,979.71
2023-07-10T00:29:06.430Z,979.82
2023-07-10T00:29:22.599Z,979.82
2023-07-10T00:29:54.493Z,979.82
2023-07-10T00:30:12.077Z,979.92
2023-07-10T00:30:42.315Z,979.92
2023-07-10T00:31:14.535Z,980.02
2023-07-10T00:31:46.332Z,980.02
2023-07-10T00:32:18.327Z,979.71
2023-07-10T00:32:50.604Z,979.71
2023-07-10T00:33:22.347Z,979.82
2023-07-10T00:33:38.614Z,979.82
2023-07-10T00:34:10.384Z,979.82
2023-07-10T00:34:54.484Z,979.82
2023-07-10T00:35:26.418Z,979.82
2023-07-10T00:35:58.109Z,979.82
2023-07-10T00:36:30.155Z,979.82
2023-07-10T00:37:02.825Z,979.82
2023-07-10T00:37:34.302Z,979.82
2023-07-10T00:38:06.103Z,979.71
2023-07-10T00:38:22.325Z,979.71
2023-07-10T00:39:06.103Z,979.82
2023-07-10T00:39:38.263Z,979.82
2023-07-10T00:40:10.346Z,979.71
2023-07-10T00:40:41.977Z,979.71
2023-07-10T00:41:14.287Z,980.12
2023-07-10T00:41:45.998Z,980.12
2023-07-10T00:42:17.907Z,979.82
2023-07-10T00:42:50.129Z,979.82
2023-07-10T00:43:21.924Z,979.61
2023-07-10T00:43:54.145Z,979.61
2023-07-10T00:44:25.865Z,979.61
2023-07-10T00:44:57.715Z,979.61
2023-07-10T00:45:30.417Z,979.82
2023-07-10T00:46:02.556Z,979.82
2023-07-10T00:46:33.761Z,979.82
2023-07-10T00:47:05.902Z,979.61
2023-07-10T00:47:37.820Z,979.61
2023-07-10T00:48:09.693Z,979.71
2023-07-10T00:48:41.704Z,979.71
2023-07-10T00:49:13.944Z,979.71
2023-07-10T00:49:45.581Z,979.71
2023-07-10T00:50:17.846Z,979.71
2023-07-10T00:50:49.739Z,979.71
2023-07-10T00:51:21.548Z,979.71
2023-07-10T00:51:53.917Z,979.71
2023-07-10T00:52:25.469Z,979.71
2023-07-10T00:52:57.356Z,979.71
2023-07-10T00:53:29.659Z,979.82
2023-07-10T00:54:02.028Z,979.82
2023-07-10T00:54:33.434Z,980.02
2023-07-10T00:55:05.909Z,979.92
2023-07-10T00:55:21.485Z,979.92
2023-07-10T00:56:05.832Z,980.02
2023-07-10T00:56:37.426Z,980.02
2023-07-10T00:57:09.402Z,979.92
2023-07-10T00:57:41.304Z,979.92
2023-07-10T00:58:27.816Z,979.92
2023-07-10T00:58:45.320Z,979.92
2023-07-10T00:59:17.158Z,980.12
2023-07-10T00:59:49.258Z,980.12
2023-07-10T01:00:21.595Z,980.02
2023-07-10T01:00:53.534Z,980.02
2023-07-10T01:01:25.120Z,980.32
2023-07-10T01:01:57.222Z,980.32
2023-07-10T01:02:29.389Z,980.22
2023-07-10T01:03:01.070Z,980.22
2023-07-10T01:03:33.149Z,980.32
2023-07-10T01:04:05.199Z,980.43
2023-07-10T01:04:21.171Z,980.43
2023-07-10T01:04:53.006Z,980.43
2023-07-10T01:05:09.368Z,980.43
2023-07-10T01:05:40.967Z,980.43
2023-07-10T01:06:12.793Z,980.32
2023-07-10T01:06:44.948Z,980.32
2023-07-10T01:07:16.985Z,980.53
2023-07-10T01:07:48.969Z,980.53
2023-07-10T01:08:20.936Z,980.43
2023-07-10T01:08:36.862Z,980.43
2023-07-10T01:09:08.784Z,980.73
2023-07-10T01:09:52.932Z,980.73
2023-07-10T01:10:25.062Z,980.43
2023-07-10T01:10:56.677Z,980.43
2023-07-10T01:11:28.701Z,980.43
2023-07-10T01:12:00.684Z,980.43
2023-07-10T01:12:32.745Z,980.43
2023-07-10T01:13:05.033Z,980.22
2023-07-10T01:13:36.649Z,980.22
2023-07-10T01:14:08.809Z,980.63
2023-07-10T01:14:40.674Z,980.63
2023-07-10T01:15:13.889Z,980.53
2023-07-10T01:15:44.657Z,980.53
2023-07-10T01:16:16.497Z,980.73
2023-07-10T01:16:48.558Z,980.73
2023-07-10T01:17:20.533Z,980.63
2023-07-10T01:17:36.547Z,980.63
2023-07-10T01:18:20.682Z,980.53
2023-07-10T01:18:52.529Z,980.53
2023-07-10T01:19:24.655Z,980.63
2023-07-10T01:19:56.302Z,980.63
2023-07-10T01:20:12.677Z,980.63
2023-07-10T01:20:44.379Z,980.63
2023-07-10T01:21:28.350Z,980.63
2023-07-10T01:22:00.269Z,980.63
2023-07-10T01:22:32.224Z,980.73
2023-07-10T01:23:04.610Z,980.73
2023-07-10T01:23:36.343Z,980.73
2023-07-10T01:24:08.359Z,980.83
2023-07-10T01:24:40.222Z,980.83
2023-07-10T01:25:12.467Z,980.83
2023-07-10T01:25:44.266Z,980.83
2023-07-10T01:26:15.842Z,980.73
2023-07-10T01:26:47.966Z,980.73
2023-07-10T01:27:20.103Z,980.43
2023-07-10T01:27:52.018Z,980.43
2023-07-10T01:28:24.382Z,980.73
2023-07-10T01:28:55.962Z,980.73
2023-07-10T01:29:27.856Z,980.73
2023-07-10T01:30:00.070Z,980.73
2023-07-10T01:30:32.197Z,980.53
2023-07-10T01:31:04.425Z,980.63
2023-07-10T01:31:20.351Z,980.63
2023-07-10T01:32:04.362Z,980.63
2023-07-10T01:32:35.933Z,980.63
2023-07-10T01:33:07.804Z,980.63
2023-07-10T01:33:40.076Z,980.63
2023-07-10T01:34:11.821Z,980.63
2023-07-10T01:34:43.844Z,980.63
2023-07-10T01:35:15.876Z,980.32
2023-07-10T01:35:47.797Z,980.32
2023-07-10T01:36:19.661Z,980.63
2023-07-10T01:36:51.795Z,980.63
2023-07-10T01:37:23.798Z,980.93
2023-07-10T01:37:55.569Z,980.93
2023-07-10T01:38:27.578Z,980.53
2023-07-10T01:38:59.762Z,980.53
2023-07-10T01:39:31.414Z,980.53
2023-07-10T01:40:05.183Z,980.53
2023-07-10T01:40:35.482Z,980.53
2023-07-10T01:41:07.519Z,980.83
2023-07-10T01:41:39.519Z,980.83
2023-07-10T01:42:11.410Z,980.63
2023-07-10T01:42:43.534Z,980.63
2023-07-10T01:43:15.428Z,980.73
2023-07-10T01:43:47.303Z,980.73
2023-07-10T01:44:19.511Z,980.73
2023-07-10T01:44:35.434Z,980.73
2023-07-10T01:45:07.977Z,980.63
2023-07-10T01:45:51.473Z,980.63
2023-07-10T01:46:23.492Z,980.63
2023-07-10T01:46:55.423Z,980.63
2023-07-10T01:47:27.308Z,980.63
2023-07-10T01:47:59.505Z,980.63
2023-07-10T01:48:31.852Z,980.63
2023-07-10T01:49:04.314Z,980.73
2023-07-10T01:49:19.329Z,980.73
2023-07-10T01:50:04.350Z,980.53
2023-07-10T01:50:35.249Z,980.53
2023-07-10T01:51:06.992Z,980.53
2023-07-10T01:51:39.077Z,980.53
2023-07-10T01:52:11.037Z,980.53
2023-07-10T01:52:43.052Z,980.53
2023-07-10T01:53:14.835Z,980.43
2023-07-10T01:53:46.855Z,980.43
2023-07-10T01:54:18.940Z,980.53
2023-07-10T01:54:51.360Z,980.53
2023-07-10T01:55:23.355Z,980.22
2023-07-10T01:55:54.918Z,980.22
2023-07-10T01:56:26.871Z,980.43
2023-07-10T01:56:59.281Z,980.43
2023-07-10T01:57:30.691Z,980.32
2023-07-10T01:58:03.465Z,980.32
2023-07-10T01:58:18.971Z,980.43
2023-07-10T01:58:50.823Z,980.43
2023-07-10T01:59:06.762Z,980.63
2023-07-10T01:59:38.694Z,980.63
2023-07-10T02:00:12.787Z,980.63
2023-07-10T02:00:42.696Z,980.63
2023-07-10T02:01:14.872Z,980.53
2023-07-10T02:01:46.579Z,980.53
2023-07-10T02:02:18.570Z,980.43
2023-07-10T02:02:34.893Z,980.43
2023-07-10T02:03:06.601Z,980.53
2023-07-10T02:03:50.801Z,980.53
2023-07-10T02:04:22.471Z,980.43
2023-07-10T02:04:54.829Z,980.43
2023-07-10T02:05:26.801Z,980.22
2023-07-10T02:05:58.447Z,980.22
2023-07-10T02:06:30.438Z,980.22
2023-07-10T02:06:46.492Z,980.22
2023-07-10T02:07:18.316Z,980.53
2023-07-10T02:07:34.447Z,980.53
2023-07-10T02:08:06.530Z,980.43
2023-07-10T02:08:38.278Z,980.43
2023-07-10T02:09:10.416Z,980.22
2023-07-10T02:09:42.278Z,980.22
2023-07-10T02:10:14.670Z,980.43
2023-07-10T02:10:46.053Z,980.43
2023-07-10T02:11:18.385Z,980.53
2023-07-10T02:11:34.404Z,980.53
2023-07-10T02:12:18.268Z,980.32
2023-07-10T02:12:50.353Z,980.32
2023-07-10T02:13:22.085Z,980.43
2023-07-10T02:13:54.491Z,980.43
2023-07-10T02:14:26.141Z,980.43
2023-07-10T02:14:58.223Z,980.43
2023-07-10T02:15:30.450Z,980.43
2023-07-10T02:16:02.848Z,980.43
2023-07-10T02:16:34.200Z,980.43
2023-07-10T02:17:06.144Z,980.43
2023-07-10T02:17:38.074Z,980.43
2023-07-10T02:18:10.314Z,980.63
2023-07-10T02:18:42.013Z,980.63
2023-07-10T02:19:13.951Z,980.32
2023-07-10T02:19:45.755Z,980.32
2023-07-10T02:20:18.244Z,980.32
2023-07-10T02:20:34.080Z,980.32
2023-07-10T02:21:05.835Z,980.32
2023-07-10T02:21:49.850Z,980.32
2023-07-10T02:22:21.699Z,980.32
2023-07-10T02:22:54.077Z,980.32
2023-07-10T02:23:25.668Z,980.32
2023-07-10T02:23:57.845Z,980.32
2023-07-10T02:24:29.797Z,980.12
2023-07-10T02:25:02.285Z,980.12
2023-07-10T02:25:17.900Z,980.22
2023-07-10T02:26:02.221Z,980.22
2023-07-10T02:26:33.706Z,980.12
2023-07-10T02:27:05.632Z,980.32
2023-07-10T02:27:37.478Z,980.32
2023-07-10T02:28:09.664Z,980.43
2023-07-10T02:28:41.658Z,980.43
2023-07-10T02:29:13.400Z,980.32
2023-07-10T02:29:45.394Z,980.32
2023-07-10T02:30:18.809Z,980.22
2023-07-10T02:30:49.509Z,980.22
2023-07-10T02:31:21.386Z,980.32
2023-07-10T02:31:53.612Z,980.32
2023-07-10T02:32:25.367Z,980.22
2023-07-10T02:32:57.381Z,980.22
2023-07-10T02:33:29.240Z,980.22
2023-07-10T02:34:01.448Z,980.22
2023-07-10T02:34:33.334Z,980.32
2023-07-10T02:35:05.613Z,980.32
2023-07-10T02:35:37.077Z,980.32
2023-07-10T02:36:09.338Z,980.32
2023-07-10T02:36:41.308Z,980.32
2023-07-10T02:37:13.258Z,980.43
2023-07-10T02:37:45.152Z,980.43
2023-07-10T02:38:17.075Z,980.32
2023-07-10T02:38:33.278Z,980.32
2023-07-10T02:39:05.266Z,980.22
2023-07-10T02:39:49.152Z,980.22
2023-07-10T02:40:21.183Z,980.53
2023-07-10T02:40:53.196Z,980.53
2023-07-10T02:41:25.102Z,980.43
2023-07-10T02:41:57.032Z,980.43
2023-07-10T02:42:28.799Z,980.53
2023-07-10T02:43:00.913Z,980.53
2023-07-10T02:43:32.981Z,980.63
2023-07-10T02:44:05.117Z,980.63
2023-07-10T02:44:36.752Z,980.63
2023-07-10T02:45:11.947Z,980.73
2023-07-10T02:45:40.927Z,980.73
2023-07-10T02:46:12.790Z,980.63
2023-07-10T02:46:44.737Z,980.63
2023-07-10T02:47:16.607Z,980.53
2023-07-10T02:47:48.881Z,980.53
2023-07-10T02:48:20.854Z,980.73
2023-07-10T02:48:52.596Z,980.73
2023-07-10T02:49:24.968Z,980.63
2023-07-10T02:49:56.595Z,980.63
2023-07-10T02:50:28.822Z,980.63
2023-07-10T02:51:00.593Z,980.63
2023-07-10T02:51:16.567Z,980.63
2023-07-10T02:51:48.415Z,980.63
2023-07-10T02:52:04.891Z,980.63
2023-07-10T02:52:36.629Z,980.63
2023-07-10T02:53:08.442Z,980.73
2023-07-10T02:53:40.650Z,980.73
2023-07-10T02:54:12.454Z,980.53
2023-07-10T02:54:44.622Z,980.53
2023-07-10T02:55:16.534Z,980.43
2023-07-10T02:55:32.517Z,980.43
2023-07-10T02:56:05.394Z,980.22
2023-07-10T02:56:48.370Z,980.22
2023-07-10T02:57:20.596Z,980.63
2023-07-10T02:57:52.231Z,980.63
2023-07-10T02:58:24.502Z,980.43
2023-07-10T02:58:56.387Z,980.43
2023-07-10T02:59:28.346Z,980.43
2023-07-10T03:00:01.930Z,980.43
2023-07-10T03:00:16.767Z,980.63
2023-07-10T03:01:00.342Z,980.63
2023-07-10T03:01:32.114Z,980.83
2023-07-10T03:02:05.024Z,980.83
2023-07-10T03:02:36.080Z,980.83
2023-07-10T03:03:07.934Z,980.83
2023-07-10T03:03:40.172Z,980.83
2023-07-10T03:04:12.095Z,980.83
2023-07-10T03:04:44.064Z,980.83
2023-07-10T03:05:16.295Z,980.93
2023-07-10T03:05:32.012Z,980.93
2023-07-10T03:06:16.145Z,981.04
2023-07-10T03:06:48.070Z,981.04
2023-07-10T03:07:19.790Z,981.04
2023-07-10T03:07:52.045Z,981.04
2023-07-10T03:08:24.195Z,980.83
2023-07-10T03:08:55.883Z,980.83
2023-07-10T03:09:27.762Z,980.93
2023-07-10T03:09:59.856Z,980.93
2023-07-10T03:10:32.061Z,980.93
2023-07-10T03:11:04.533Z,981.14
2023-07-10T03:11:35.712Z,981.14
2023-07-10T03:12:07.703Z,980.93
2023-07-10T03:12:39.931Z,980.93
2023-07-10T03:13:11.832Z,980.83
2023-07-10T03:13:43.653Z,980.83
2023-07-10T03:14:15.660Z,980.83
2023-07-10T03:14:47.671Z,980.83
2023-07-10T03:15:19.903Z,980.93
2023-07-10T03:15:51.678Z,980.93
2023-07-10T03:16:23.825Z,980.83
2023-07-10T03:16:55.586Z,980.83
2023-07-10T03:17:27.642Z,981.04
2023-07-10T03:17:59.498Z,981.04
2023-07-10T03:18:15.603Z,980.93
2023-07-10T03:18:59.437Z,980.93
2023-07-10T03:19:31.415Z,980.93
2023-07-10T03:20:04.553Z,980.73
2023-07-10T03:20:35.302Z,980.73
2023-07-10T03:21:07.361Z,980.93
2023-07-10T03:21:39.476Z,980.93
2023-07-10T03:22:11.310Z,980.73
2023-07-10T03:22:43.284Z,980.73
2023-07-10T03:23:15.337Z,980.93
2023-07-10T03:23:47.295Z,980.93
2023-07-10T03:24:19.460Z,980.63
2023-07-10T03:24:51.088Z,980.63
2023-07-10T03:25:07.624Z,980.93
2023-07-10T03:25:39.368Z,980.93
2023-07-10T03:26:23.311Z,980.73
2023-07-10T03:26:55.184Z,980.73
2023-07-10T03:27:27.060Z,980.63
2023-07-10T03:27:59.051Z,980.63
2023-07-10T03:28:31.083Z,980.63
2023-07-10T03:29:04.121Z,980.63
2023-07-10T03:29:34.985Z,980.73
2023-07-10T03:30:09.406Z,980.93
2023-07-10T03:30:39.545Z,980.93
2023-07-10T03:31:10.998Z,980.73
2023-07-10T03:31:43.055Z,980.73
2023-07-10T03:32:15.079Z,980.83
2023-07-10T03:32:46.993Z,980.83
2023-07-10T03:33:18.997Z,980.73
2023-07-10T03:33:50.750Z,980.73
2023-07-10T03:34:22.783Z,980.43
2023-07-10T03:34:54.853Z,980.43
2023-07-10T03:35:26.909Z,980.83
2023-07-10T03:35:58.860Z,980.83
2023-07-10T03:36:14.813Z,980.83
2023-07-10T03:36:58.795Z,980.83
2023-07-10T03:37:30.627Z,980.83
2023-07-10T03:38:03.258Z,980.83
2023-07-10T03:38:34.800Z,980.83
2023-07-10T03:39:06.644Z,981.04
2023-07-10T03:39:38.620Z,981.04
2023-07-10T03:40:11.079Z,980.73
2023-07-10T03:40:42.544Z,980.73
2023-07-10T03:41:14.642Z,980.83
2023-07-10T03:41:46.519Z,980.83
2023-07-10T03:42:18.188Z,981.04
2023-07-10T03:42:50.380Z,981.04
2023-07-10T03:43:22.387Z,981.04
2023-07-10T03:43:54.688Z,981.04
2023-07-10T03:44:26.315Z,980.93
2023-07-10T03:44:58.238Z,980.93
2023-07-10T03:45:15.577Z,981.14
2023-07-10T03:45:46.261Z,981.14
2023-07-10T03:46:03.524Z,981.14
2023-07-10T03:46:34.434Z,981.04
2023-07-10T03:47:06.380Z,980.93
2023-07-10T03:47:38.176Z,980.93
2023-07-10T03:48:10.504Z,981.04
2023-07-10T03:48:42.360Z,981.04
2023-07-10T03:49:14.111Z,980.93
2023-07-10T03:49:30.190Z,980.93
2023-07-10T03:50:02.495Z,980.93
2023-07-10T03:50:46.223Z,981.04
2023-07-10T03:51:17.918Z,980.93
2023-07-10T03:51:50.108Z,980.93
2023-07-10T03:52:22.202Z,981.04
2023-07-10T03:52:54.434Z,981.04
2023-07-10T03:53:26.065Z,981.04
2023-07-10T03:53:58.018Z,981.04
2023-07-10T03:54:29.880Z,980.93
2023-07-10T03:55:02.409Z,980.93
2023-07-10T03:55:34.324Z,981.14
2023-07-10T03:56:06.194Z,980.93
2023-07-10T03:56:38.049Z,980.93
2023-07-10T03:57:10.119Z,980.83
2023-07-10T03:57:41.978Z,980.83
2023-07-10T03:58:14.135Z,981.24
2023-07-10T03:58:30.025Z,981.24
2023-07-10T03:59:14.003Z,981.24
2023-07-10T03:59:45.978Z,981.24
2023-07-10T04:00:19.988Z,981.34
2023-07-10T04:00:49.880Z,981.34
2023-07-10T04:01:22.086Z,981.34
2023-07-10T04:01:54.039Z,981.34
2023-07-10T04:02:26.027Z,981.04
2023-07-10T04:02:57.819Z,981.04
2023-07-10T04:03:14.112Z,981.41
2023-07-10T04:03:45.687Z,981.41
2023-07-10T04:04:02.118Z,981.41
2023-07-10T04:04:33.911Z,981.24
2023-07-10T04:05:06.308Z,981.51
2023-07-10T04:05:37.608Z,981.51
2023-07-10T04:06:10.198Z,981.41
2023-07-10T04:06:41.605Z,981.41
2023-07-10T04:07:13.630Z,981.24
2023-07-10T04:07:29.679Z,981.24
2023-07-10T04:08:01.545Z,981.24
2023-07-10T04:08:45.574Z,981.51
2023-07-10T04:09:17.284Z,981.61
2023-07-10T04:09:49.433Z,981.61
2023-07-10T04:10:21.785Z,981.24
2023-07-10T04:10:53.532Z,981.24
2023-07-10T04:11:25.474Z,981.41
2023-07-10T04:11:57.399Z,981.41
2023-07-10T04:12:13.548Z,981.34
2023-07-10T04:12:57.353Z,981.34
2023-07-10T04:13:29.458Z,981.51
2023-07-10T04:14:01.556Z,981.51
2023-07-10T04:14:33.362Z,981.51
2023-07-10T04:15:06.989Z,981.34
2023-07-10T04:15:37.384Z,981.34
2023-07-10T04:16:09.357Z,981.51
2023-07-10T04:16:41.380Z,981.51
2023-07-10T04:17:13.257Z,981.51
2023-07-10T04:17:45.460Z,981.51
2023-07-10T04:18:17.026Z,981.61
2023-07-10T04:18:49.331Z,981.61
2023-07-10T04:19:21.509Z,981.61
2023-07-10T04:19:53.297Z,981.61
2023-07-10T04:20:25.620Z,981.41
2023-07-10T04:20:56.925Z,981.41
2023-07-10T04:21:13.240Z,981.34
2023-07-10T04:21:45.083Z,981.34
2023-07-10T04:22:01.374Z,981.34
2023-07-10T04:22:33.176Z,981.34
2023-07-10T04:23:05.678Z,981.34
2023-07-10T04:23:36.979Z,981.34
2023-07-10T04:24:09.112Z,981.61
2023-07-10T04:24:41.281Z,981.61
2023-07-10T04:25:13.230Z,981.51
2023-07-10T04:25:28.945Z,981.51
2023-07-10T04:26:00.854Z,981.51
2023-07-10T04:26:44.894Z,981.71
2023-07-10T04:27:16.640Z,981.41
2023-07-10T04:27:48.732Z,981.41
2023-07-10T04:28:20.803Z,981.34
2023-07-10T04:28:52.795Z,981.34
2023-07-10T04:29:24.978Z,981.41
2023-07-10T04:29:56.530Z,981.41
2023-07-10T04:30:14.588Z,981.41
2023-07-10T04:30:56.556Z,981.41
2023-07-10T04:31:28.658Z,981.51
2023-07-10T04:32:00.634Z,981.51
2023-07-10T04:32:32.456Z,981.51
2023-07-10T04:33:05.570Z,981.61
2023-07-10T04:33:36.521Z,981.61
2023-07-10T04:34:08.549Z,981.51
2023-07-10T04:34:40.770Z,981.51
2023-07-10T04:35:12.705Z,981.34
2023-07-10T04:35:44.657Z,981.34
2023-07-10T04:36:16.333Z,981.34
2023-07-10T04:36:48.193Z,981.34
2023-07-10T04:37:20.456Z,981.24
2023-07-10T04:37:52.417Z,981.24
2023-07-10T04:38:24.376Z,981.34
2023-07-10T04:38:56.394Z,981.34
2023-07-10T04:39:12.364Z,981.34
2023-07-10T04:39:46.090Z,981.34
2023-07-10T04:40:02.836Z,981.34
2023-07-10T04:40:32.229Z,981.61
2023-07-10T04:41:05.152Z,981.41
2023-07-10T04:41:36.110Z,981.41
2023-07-10T04:42:08.294Z,981.34
2023-07-10T04:42:40.523Z,981.34
2023-07-10T04:43:12.048Z,981.41
2023-07-10T04:43:28.171Z,981.41
2023-07-10T04:44:00.032Z,981.41
2023-07-10T04:44:44.355Z,981.34
2023-07-10T04:45:17.266Z,981.24
2023-07-10T04:45:47.828Z,981.24
2023-07-10T04:46:20.213Z,981.34
2023-07-10T04:46:52.217Z,981.34
2023-07-10T04:47:24.165Z,981.34
2023-07-10T04:47:55.988Z,981.34
2023-07-10T04:48:27.953Z,981.51
2023-07-10T04:48:59.962Z,981.51
2023-07-10T04:49:31.902Z,981.71
2023-07-10T04:50:04.921Z,981.41
2023-07-10T04:50:35.827Z,981.41
2023-07-10T04:51:07.959Z,981.61
2023-07-10T04:51:40.070Z,981.61
2023-07-10T04:52:11.580Z,981.34
2023-07-10T04:52:27.816Z,981.34
2023-07-10T04:53:11.716Z,981.34
2023-07-10T04:53:43.882Z,981.34
2023-07-10T04:54:15.697Z,981.71
2023-07-10T04:54:47.545Z,981.71
2023-07-10T04:55:19.889Z,981.51
2023-07-10T04:55:51.506Z,981.51
2023-07-10T04:56:23.681Z,981.81
2023-07-10T04:56:55.632Z,981.81
2023-07-10T04:57:12.128Z,981.81
2023-07-10T04:57:43.662Z,981.81
2023-07-10T04:57:59.666Z,981.81
2023-07-10T04:58:31.560Z,981.81
2023-07-10T04:59:04.339Z,981.81
2023-07-10T04:59:35.457Z,981.92
2023-07-10T05:00:08.947Z,981.71
2023-07-10T05:00:39.466Z,981.71
2023-07-10T05:01:11.462Z,981.92
2023-07-10T05:01:27.355Z,981.92
2023-07-10T05:01:59.261Z,981.92
2023-07-10T05:02:43.676Z,981.92
2023-07-10T05:03:15.448Z,982.02
2023-07-10T05:03:47.155Z,982.02
2023-07-10T05:04:19.375Z,982.22
2023-07-10T05:04:51.307Z,982.22
2023-07-10T05:05:23.736Z,982.12
2023-07-10T05:05:55.223Z,982.12
2023-07-10T05:06:11.373Z,981.92
2023-07-10T05:06:55.394Z,981.92
2023-07-10T05:07:27.061Z,982.02
2023-07-10T05:07:59.074Z,982.02
2023-07-10T05:08:31.067Z,982.12
2023-07-10T05:09:03.704Z,982.12
2023-07-10T05:09:35.302Z,982.22
2023-07-10T05:10:07.249Z,982.32
2023-07-10T05:10:38.939Z,982.32
2023-07-10T05:11:11.487Z,982.22
2023-07-10T05:11:42.956Z,982.22
2023-07-10T05:12:14.968Z,982.02
2023-07-10T05:12:46.870Z,982.02
2023-07-10T05:13:18.800Z,982.12
2023-07-10T05:13:51.023Z,982.12
2023-07-10T05:14:22.780Z,982.02
2023-07-10T05:14:54.808Z,982.02
2023-07-10T05:15:27.112Z,982.02
2023-07-10T05:15:58.853Z,982.02
2023-07-10T05:16:30.701Z,981.71
2023-07-10T05:17:03.053Z,981.71
2023-07-10T05:17:34.855Z,982.02
2023-07-10T05:18:06.551Z,981.92
2023-07-10T05:18:38.652Z,981.92
2023-07-10T05:19:10.930Z,981.92
2023-07-10T05:19:42.428Z,981.92
2023-07-10T05:19:58.709Z,981.92
2023-07-10T05:20:43.309Z,982.02
2023-07-10T05:21:14.656Z,981.71
2023-07-10T05:21:46.588Z,981.71
2023-07-10T05:22:18.428Z,981.61
2023-07-10T05:22:50.610Z,981.61
2023-07-10T05:23:22.537Z,981.71
2023-07-10T05:23:54.765Z,981.71
2023-07-10T05:24:26.431Z,981.61
2023-07-10T05:24:42.426Z,981.61
2023-07-10T05:25:14.645Z,981.61
2023-07-10T05:25:58.447Z,981.61
2023-07-10T05:26:30.404Z,981.61
2023-07-10T05:27:02.627Z,981.61
2023-07-10T05:27:34.402Z,981.71
2023-07-10T05:28:06.199Z,981.81
2023-07-10T05:28:38.188Z,981.81
2023-07-10T05:29:10.862Z,981.71
2023-07-10T05:29:26.280Z,981.71
2023-07-10T05:30:12.656Z,982.02
2023-07-10T05:30:42.248Z,982.02
2023-07-10T05:31:14.462Z,982.02
2023-07-10T05:31:46.035Z,982.02
2023-07-10T05:32:18.120Z,981.92
2023-07-10T05:32:50.159Z,981.92
2023-07-10T05:33:21.975Z,981.61
2023-07-10T05:33:54.134Z,981.61
2023-07-10T05:34:26.179Z,981.34
2023-07-10T05:34:58.105Z,981.34
2023-07-10T05:35:30.169Z,981.71
2023-07-10T05:36:02.788Z,981.71
2023-07-10T05:36:33.983Z,981.51
2023-07-10T05:37:06.234Z,981.71
2023-07-10T05:37:38.155Z,981.71
2023-07-10T05:38:10.023Z,981.71
2023-07-10T05:38:41.933Z,981.71
2023-07-10T05:39:13.979Z,982.02
2023-07-10T05:39:45.673Z,982.02
2023-07-10T05:40:20.346Z,982.02
2023-07-10T05:40:49.933Z,982.02
2023-07-10T05:41:21.823Z,982.12
2023-07-10T05:41:53.855Z,982.12
2023-07-10T05:42:09.926Z,982.32
2023-07-10T05:42:53.777Z,982.32
2023-07-10T05:43:09.906Z,982.12
2023-07-10T05:43:53.778Z,982.12
2023-07-10T05:44:25.853Z,982.63
2023-07-10T05:44:57.491Z,982.63
2023-07-10T05:45:30.090Z,982.42
2023-07-10T05:46:01.932Z,982.42
2023-07-10T05:46:33.716Z,982.53
2023-07-10T05:47:05.716Z,982.53
2023-07-10T05:47:37.462Z,982.53
2023-07-10T05:48:09.559Z,982.42
2023-07-10T05:48:41.600Z,982.42
2023-07-10T05:49:13.422Z,982.32
2023-07-10T05:49:45.354Z,982.32
2023-07-10T05:50:17.659Z,982.12
2023-07-10T05:50:49.647Z,982.12
2023-07-10T05:51:21.254Z,982.53
2023-07-10T05:51:53.440Z,982.53
2023-07-10T05:52:25.439Z,982.32
2023-07-10T05:52:57.419Z,982.32
2023-07-10T05:53:29.309Z,982.63
2023-07-10T05:54:01.376Z,982.63
2023-07-10T05:54:33.284Z,982.53
2023-07-10T05:55:05.785Z,982.32
2023-07-10T05:55:37.026Z,982.32
2023-07-10T05:56:09.308Z,982.42
2023-07-10T05:56:41.625Z,982.42
2023-07-10T05:57:13.712Z,982.63
2023-07-10T05:57:45.453Z,982.63
2023-07-10T05:58:17.236Z,982.42
2023-07-10T05:58:49.256Z,982.42
2023-07-10T05:59:21.299Z,982.63
2023-07-10T05:59:52.913Z,982.63
2023-07-10T06:00:11.187Z,982.42
2023-07-10T06:00:52.928Z,982.42
2023-07-10T06:01:25.267Z,982.53
2023-07-10T06:01:57.214Z,982.53
2023-07-10T06:02:29.022Z,982.73
2023-07-10T06:03:01.246Z,982.73
2023-07-10T06:03:33.163Z,982.32
2023-07-10T06:04:05.839Z,982.63
2023-07-10T06:04:37.040Z,982.63
2023-07-10T06:05:09.378Z,982.53
2023-07-10T06:05:41.114Z,982.53
2023-07-10T06:06:13.015Z,982.53
2023-07-10T06:06:45.089Z,982.53
2023-07-10T06:07:16.895Z,982.63
2023-07-10T06:07:49.123Z,982.63
2023-07-10T06:08:20.853Z,982.42
2023-07-10T06:08:52.861Z,982.42
2023-07-10T06:09:09.101Z,982.42
2023-07-10T06:09:40.970Z,982.42
2023-07-10T06:09:56.896Z,982.42
2023-07-10T06:10:29.868Z,982.32
2023-07-10T06:11:01.051Z,982.32
2023-07-10T06:11:32.820Z,982.22
2023-07-10T06:12:05.378Z,982.42
2023-07-10T06:12:38.573Z,982.42
2023-07-10T06:13:08.719Z,982.12
2023-07-10T06:13:40.938Z,982.12
2023-07-10T06:14:12.790Z,982.42
2023-07-10T06:14:44.562Z,982.42
2023-07-10T06:15:17.773Z,982.02
2023-07-10T06:15:48.578Z,982.02
2023-07-10T06:16:20.661Z,982.12
2023-07-10T06:16:52.517Z,982.12
2023-07-10T06:17:08.695Z,982.12
2023-07-10T06:17:52.617Z,982.12
2023-07-10T06:18:24.691Z,982.22
2023-07-10T06:18:56.418Z,982.22
2023-07-10T06:19:28.253Z,982.12
2023-07-10T06:20:00.211Z,982.12
2023-07-10T06:20:32.533Z,982.12
2023-07-10T06:21:04.827Z,982.42
2023-07-10T06:21:36.435Z,982.42
2023-07-10T06:22:08.351Z,982.32
2023-07-10T06:22:40.558Z,982.32
2023-07-10T06:23:12.067Z,982.12
2023-07-10T06:23:44.279Z,982.12
2023-07-10T06:24:16.300Z,982.12
2023-07-10T06:24:48.068Z,982.12
2023-07-10T06:25:20.314Z,982.12
2023-07-10T06:25:53.019Z,982.12
2023-07-10T06:26:24.380Z,982.42
2023-07-10T06:26:56.001Z,982.42
2023-07-10T06:27:27.899Z,982.02
2023-07-10T06:28:00.126Z,982.02
2023-07-10T06:28:31.932Z,982.32
2023-07-10T06:29:04.571Z,982.22
2023-07-10T06:29:35.908Z,982.22
2023-07-10T06:30:08.448Z,982.12
2023-07-10T06:30:40.028Z,982.12